createdAt,value
2019-04-29T00:03:26.198Z,98881.50
2019-04-29T00:08:31.461Z,98880.51
2019-04-29T00:13:36.621Z,98869.44
2019-04-29T00:18:52.313Z,98877.39
2019-04-29T00:24:04.140Z,98873.27
2019-04-29T00:29:05.366Z,98877.71
2019-04-29T00:34:10.519Z,98881.94
2019-04-29T00:39:49.876Z,98881.03
2019-04-29T00:44:55.034Z,98882.70
2019-04-29T00:50:00.194Z,98876.30
2019-04-29T00:55:09.900Z,98878.97
2019-04-29T01:00:23.640Z,98877.73
2019-04-29T01:05:29.098Z,98871.56
2019-04-29T01:10:34.264Z,98871.48
2019-04-29T01:15:40.327Z,98866.11
2019-04-29T01:20:46.138Z,98863.09
2019-04-29T01:25:55.062Z,98861.15
2019-04-29T01:31:11.875Z,98864.48
2019-04-29T01:36:36.032Z,98865.56
2019-04-29T01:42:05.230Z,98856.81
2019-04-29T01:47:10.403Z,98861.81
2019-04-29T01:52:15.550Z,98857.19
2019-04-29T01:57:20.789Z,98860.98
2019-04-29T02:02:26.047Z,98861.35
2019-04-29T02:07:31.227Z,98866.48
2019-04-29T02:12:36.387Z,98863.31
2019-04-29T02:17:41.551Z,98853.23
2019-04-29T02:23:05.034Z,98850.15
2019-04-29T02:28:10.195Z,98848.48
2019-04-29T02:33:15.364Z,98841.47
2019-04-29T02:38:31.269Z,98842.69
2019-04-29T02:43:37.996Z,98840.39
2019-04-29T02:48:43.156Z,98839.02
2019-04-29T02:53:48.461Z,98838.19
2019-04-29T02:58:59.712Z,98838.94
2019-04-29T03:04:19.938Z,98837.14
2019-04-29T03:09:25.122Z,98843.44
2019-04-29T03:14:30.385Z,98834.69
2019-04-29T03:19:38.616Z,98836.19
2019-04-29T03:24:44.114Z,98832.90
2019-04-29T03:29:49.347Z,98830.15
2019-04-29T03:34:55.006Z,98824.77
2019-04-29T03:40:01.490Z,98823.56
2019-04-29T03:45:08.000Z,98814.66
2019-04-29T03:50:13.816Z,98820.43
2019-04-29T03:55:37.683Z,98810.09
2019-04-29T04:00:26.942Z,98816.47
2019-04-29T04:05:38.462Z,98816.47
2019-04-29T04:10:43.645Z,98815.14
2019-04-29T04:15:48.856Z,98819.19
2019-04-29T04:20:54.425Z,98826.92
2019-04-29T04:25:59.601Z,98827.88
2019-04-29T04:31:07.037Z,98836.46
2019-04-29T04:36:12.647Z,98837.91
2019-04-29T04:41:17.820Z,98839.41
2019-04-29T04:46:25.108Z,98838.56
2019-04-29T04:51:30.618Z,98835.78
2019-04-29T04:56:37.269Z,98840.90
2019-04-29T05:01:43.897Z,98829.55
2019-04-29T05:06:49.538Z,98838.80
2019-04-29T05:11:55.509Z,98845.67
2019-04-29T05:17:01.049Z,98851.10
2019-04-29T05:22:06.670Z,98846.48
2019-04-29T05:27:13.060Z,98839.06
2019-04-29T05:32:18.703Z,98823.72
2019-04-29T05:37:32.646Z,98818.66
2019-04-29T05:42:39.169Z,98822.02
2019-04-29T05:47:47.701Z,98826.54
2019-04-29T05:53:01.803Z,98822.61
2019-04-29T05:58:13.246Z,98834.50
2019-04-29T06:03:18.454Z,98828.41
2019-04-29T06:08:24.041Z,98825.54
2019-04-29T06:13:30.220Z,98822.01
2019-04-29T06:18:35.526Z,98825.19
2019-04-29T06:23:41.072Z,98822.64
2019-04-29T06:28:46.776Z,98812.20
2019-04-29T06:33:52.099Z,98819.59
2019-04-29T06:38:58.319Z,98819.11
2019-04-29T06:44:06.730Z,98821.64
2019-04-29T06:49:11.828Z,98817.88
2019-04-29T06:54:17.001Z,98823.33
2019-04-29T06:59:23.842Z,98823.92
2019-04-29T07:04:30.743Z,98814.20
2019-04-29T07:09:37.389Z,98815.14
2019-04-29T07:14:42.581Z,98816.08
2019-04-29T07:19:47.770Z,98811.28
2019-04-29T07:24:52.939Z,98802.03
2019-04-29T07:30:01.853Z,98793.60
2019-04-29T07:35:09.908Z,98792.34
2019-04-29T07:40:14.050Z,98789.75
2019-04-29T07:45:43.656Z,98784.22
2019-04-29T07:50:38.429Z,98781.26
2019-04-29T07:55:44.829Z,98776.33
2019-04-29T08:00:50.273Z,98778.47
2019-04-29T08:05:55.495Z,98773.11
2019-04-29T08:11:01.581Z,98775.94
2019-04-29T08:16:07.604Z,98774.67
2019-04-29T08:21:14.407Z,98775.54
2019-04-29T08:26:20.031Z,98777.89
2019-04-29T08:31:25.716Z,98784.25
2019-04-29T08:36:31.699Z,98772.52
2019-04-29T08:41:36.948Z,98768.02
2019-04-29T08:46:51.689Z,98753.54
2019-04-29T08:51:53.423Z,98755.12
2019-04-29T08:57:03.118Z,98755.88
2019-04-29T09:02:10.306Z,98744.30
2019-04-29T09:07:17.472Z,98743.16
2019-04-29T15:45:34.247Z,98509.45
2019-04-29T15:50:39.466Z,98510.73
2019-04-29T15:55:44.627Z,98508.34
2019-04-29T16:00:50.077Z,98514.20
2019-04-29T16:06:21.176Z,98507.22
2019-04-29T16:11:36.302Z,98509.98
2019-04-29T16:16:42.758Z,98511.46
2019-04-29T16:21:48.398Z,98510.55
2019-04-29T16:26:54.020Z,98506.94
2019-04-29T16:32:02.373Z,98509.34
2019-04-29T16:37:06.495Z,98512.58
2019-04-29T16:42:19.953Z,98517.05
2019-04-29T16:47:26.371Z,98519.92
2019-04-29T16:52:31.625Z,98521.67
2019-04-29T16:57:36.859Z,98510.03
2019-04-29T17:02:42.034Z,98517.59
2019-04-29T17:07:48.925Z,98523.16
2019-04-29T17:12:54.166Z,98539.19
2019-04-29T17:17:59.255Z,98545.63
2019-04-29T17:23:05.083Z,98533.73
2019-04-29T17:28:25.468Z,98546.53
2019-04-29T17:33:49.218Z,98543.84
2019-04-29T17:38:50.273Z,98552.92
2019-04-29T17:44:18.697Z,98550.95
2019-04-29T17:54:55.059Z,98557.03
2019-04-29T18:00:22.861Z,98555.89
2019-04-29T18:05:54.336Z,98558.22
2019-04-29T18:10:53.361Z,98568.60
2019-04-29T18:16:04.018Z,98571.44
2019-04-29T18:21:18.124Z,98570.09
2019-04-29T18:26:35.821Z,98569.74
2019-04-29T18:31:41.093Z,98572.42
2019-04-29T18:36:46.183Z,98576.09
2019-04-29T18:41:51.371Z,98574.41
2019-04-29T18:46:57.303Z,98568.55
2019-04-29T18:52:05.708Z,98573.06
2019-04-29T18:57:09.797Z,98582.10
2019-04-29T19:02:15.892Z,98583.75
2019-04-29T19:07:21.239Z,98586.71
2019-04-29T19:12:26.484Z,98590.73
2019-04-29T19:17:36.755Z,98589.91
2019-04-29T19:22:39.909Z,98592.08
2019-04-29T19:27:45.551Z,98596.46
2019-04-29T19:32:53.965Z,98602.90
2019-04-29T19:37:58.439Z,98600.56
2019-04-29T19:43:05.963Z,98604.80
2019-04-29T19:48:10.997Z,98607.84
2019-04-29T19:53:16.704Z,98610.88
2019-04-29T19:58:28.529Z,98602.47
2019-04-29T20:03:36.308Z,98611.91
2019-04-29T20:08:51.055Z,98617.16
2019-04-29T20:14:01.226Z,98617.71
2019-04-29T20:19:28.271Z,98618.58
2019-04-29T20:24:37.145Z,98618.42
2019-04-29T20:29:43.018Z,98627.94
2019-04-29T20:34:48.503Z,98621.48
2019-04-29T20:39:57.228Z,98624.17
2019-04-29T20:45:00.858Z,98615.99
2019-04-29T20:50:08.997Z,98617.42
2019-04-29T20:55:15.948Z,98613.31
2019-04-29T21:00:24.826Z,98617.19
2019-04-29T21:05:29.454Z,98616.16
2019-04-29T21:10:37.931Z,98615.44
2019-04-29T21:15:52.302Z,98619.75
2019-04-29T21:20:59.548Z,98623.35
2019-04-29T21:26:08.678Z,98630.14
2019-04-29T21:31:16.671Z,98627.03
2019-04-29T21:36:48.971Z,98621.61
2019-04-29T21:42:02.335Z,98629.16
2019-04-29T21:47:08.140Z,98627.97
2019-04-29T21:52:15.238Z,98627.89
2019-04-29T21:57:23.735Z,98626.91
2019-04-29T22:02:27.198Z,98633.98
2019-04-29T22:07:32.308Z,98636.39
2019-04-29T22:12:37.714Z,98638.64
2019-04-29T22:17:54.408Z,98639.86
2019-04-29T22:22:49.676Z,98636.86
2019-04-29T22:27:55.680Z,98643.22
2019-04-29T22:33:00.915Z,98636.42
2019-04-29T22:38:07.860Z,98643.09
2019-04-29T22:43:18.562Z,98647.23
2019-04-29T22:48:25.019Z,98645.48
2019-04-29T22:53:30.433Z,98660.39
2019-04-29T22:58:39.498Z,98653.80
2019-04-29T23:03:42.302Z,98655.15
2019-04-29T23:08:47.487Z,98653.22
2019-04-29T23:13:52.918Z,98655.45
2019-04-29T23:18:58.086Z,98658.52
2019-04-29T23:24:26.119Z,98653.11
2019-04-29T23:29:31.274Z,98657.03
2019-04-29T23:34:36.453Z,98657.90
2019-04-29T23:39:41.618Z,98656.03
2019-04-29T23:44:46.774Z,98651.82
2019-04-29T23:49:51.858Z,98658.30
2019-04-29T23:54:57.774Z,98651.70
